createdAt,value
2022-07-29T00:04:36.241Z,1.57
2022-07-29T00:09:41.935Z,1.43
2022-07-29T00:14:56.901Z,1.60
2022-07-29T00:19:59.652Z,2.00
2022-07-29T00:25:02.272Z,1.40
2022-07-29T00:30:07.748Z,1.50
2022-07-29T00:35:29.374Z,1.60
2022-07-29T00:40:32.022Z,1.70
2022-07-29T00:45:36.599Z,1.80
2022-07-29T00:50:39.513Z,1.63
2022-07-29T00:55:42.164Z,1.57
2022-07-29T01:00:46.350Z,1.70
2022-07-29T01:05:50.638Z,1.90
2022-07-29T01:10:55.117Z,1.40
2022-07-29T01:16:05.309Z,1.70
2022-07-29T01:21:38.745Z,1.90
2022-07-29T01:26:50.957Z,1.70
2022-07-29T01:32:00.906Z,2.07
2022-07-29T01:37:09.594Z,1.70
2022-07-29T01:42:17.825Z,1.50
2022-07-29T01:47:27.379Z,2.07
2022-07-29T01:52:36.018Z,2.00
2022-07-29T01:57:41.336Z,1.90
2022-07-29T02:02:49.173Z,1.83
2022-07-29T02:07:54.137Z,3.70
2022-07-29T02:12:59.151Z,1.47
2022-07-29T02:18:08.842Z,1.60
2022-07-29T02:23:13.778Z,1.57
2022-07-29T02:28:18.139Z,1.57
2022-07-29T02:33:24.596Z,1.97
2022-07-29T02:38:47.212Z,1.30
2022-07-29T02:43:54.613Z,1.67
2022-07-29T02:49:05.106Z,1.60
2022-07-29T02:54:11.161Z,1.43
2022-07-29T02:59:22.010Z,1.80
2022-07-29T03:04:29.272Z,1.60
2022-07-29T03:09:32.495Z,1.50
2022-07-29T03:14:36.972Z,2.20
2022-07-29T03:19:41.526Z,1.37
2022-07-29T03:24:44.181Z,1.70
2022-07-29T03:29:49.770Z,1.63
2022-07-29T03:34:54.744Z,1.50
2022-07-29T03:39:59.468Z,2.00
2022-07-29T03:45:05.310Z,2.60
2022-07-29T03:50:12.661Z,2.07
2022-07-29T03:55:16.613Z,1.30
2022-07-29T04:00:20.623Z,1.70
2022-07-29T04:05:24.849Z,1.73
2022-07-29T04:10:31.691Z,1.90
2022-07-29T04:15:34.886Z,1.87
2022-07-29T04:20:39.285Z,1.77
2022-07-29T04:25:42.596Z,1.60
2022-07-29T04:30:45.375Z,2.00
2022-07-29T04:35:50.403Z,2.57
2022-07-29T04:40:55.168Z,2.63
2022-07-29T04:45:59.014Z,2.43
2022-07-29T04:51:03.216Z,3.13
2022-07-29T04:56:06.636Z,3.10
2022-07-29T05:01:09.345Z,3.27
2022-07-29T05:06:13.723Z,2.57
2022-07-29T05:11:21.339Z,2.40
2022-07-29T05:16:25.114Z,2.80
2022-07-29T05:21:29.169Z,2.20
2022-07-29T05:26:31.770Z,3.47
2022-07-29T05:31:34.471Z,2.83
2022-07-29T05:36:38.411Z,2.73
2022-07-29T05:41:42.054Z,2.63
2022-07-29T05:46:44.953Z,2.80
2022-07-29T05:51:50.197Z,3.10
2022-07-29T05:56:52.778Z,2.40
2022-07-29T06:01:55.607Z,2.73
2022-07-29T06:06:59.821Z,3.27
2022-07-29T06:12:02.416Z,2.93
2022-07-29T06:17:05.506Z,2.93
2022-07-29T06:22:09.411Z,3.03
2022-07-29T06:27:12.211Z,2.50
2022-07-29T06:32:16.006Z,3.30
2022-07-29T06:37:19.902Z,2.90
2022-07-29T06:42:22.641Z,3.60
2022-07-29T06:47:25.603Z,3.80
2022-07-29T06:52:30.308Z,2.93
2022-07-29T06:57:34.093Z,3.40
2022-07-29T07:02:37.042Z,2.40
2022-07-29T07:07:41.180Z,3.23
2022-07-29T07:12:44.026Z,3.27
2022-07-29T07:17:47.089Z,3.40
2022-07-29T07:22:51.029Z,3.70
2022-07-29T07:27:53.744Z,4.30
2022-07-29T07:32:56.350Z,3.50
2022-07-29T07:38:01.016Z,4.03
2022-07-29T07:43:03.840Z,3.90
2022-07-29T07:48:11.678Z,3.97
2022-07-29T07:53:16.819Z,3.90
2022-07-29T07:58:19.408Z,5.30
2022-07-29T08:03:22.207Z,5.03
2022-07-29T08:08:26.128Z,4.57
2022-07-29T08:13:29.732Z,5.20
2022-07-29T08:18:33.443Z,5.10
2022-07-29T08:23:46.893Z,4.60
2022-07-29T08:28:51.755Z,4.80
2022-07-29T08:33:54.452Z,4.07
2022-07-29T08:38:58.658Z,4.20
2022-07-29T08:44:01.212Z,4.27
2022-07-29T08:49:04.133Z,4.00
2022-07-29T08:54:11.007Z,3.97
2022-07-29T08:59:15.103Z,4.00
2022-07-29T09:04:20.676Z,3.93
2022-07-29T09:09:24.765Z,4.60
2022-07-29T09:14:27.500Z,3.93
2022-07-29T09:19:35.105Z,4.40
2022-07-29T09:24:42.384Z,4.50
2022-07-29T09:29:45.448Z,5.30
2022-07-29T09:34:48.408Z,5.30
2022-07-29T09:39:53.440Z,4.90
2022-07-29T09:44:56.540Z,4.90
2022-07-29T09:50:01.394Z,4.83
2022-07-29T09:55:17.890Z,4.90
2022-07-29T10:00:23.990Z,4.60
2022-07-29T10:05:36.815Z,5.33
2022-07-29T10:10:43.451Z,4.00
2022-07-29T10:15:47.252Z,4.03
2022-07-29T10:20:50.416Z,4.87
2022-07-29T10:25:54.844Z,4.57
2022-07-29T10:31:03.954Z,4.40
2022-07-29T10:36:34.492Z,5.63
2022-07-29T10:42:01.318Z,7.43
2022-07-29T10:47:06.550Z,7.57
2022-07-29T10:52:11.407Z,7.10
2022-07-29T10:57:18.359Z,6.43
2022-07-29T11:08:26.533Z,4.80
2022-07-29T11:13:55.942Z,4.63
2022-07-29T11:19:29.852Z,4.40
2022-07-29T11:24:35.678Z,4.27
2022-07-29T11:29:43.110Z,3.00
2022-07-29T11:34:46.368Z,3.63
2022-07-29T11:40:11.438Z,3.70
2022-07-29T11:45:43.218Z,3.93
2022-07-29T11:50:44.305Z,3.77
2022-07-29T12:01:19.394Z,3.40
2022-07-29T12:06:22.460Z,3.47
2022-07-29T12:11:25.295Z,3.20
2022-07-29T12:16:38.202Z,3.50
2022-07-29T12:21:53.817Z,2.50
2022-07-29T12:27:01.058Z,3.40
2022-07-29T12:32:14.757Z,3.20
2022-07-29T12:37:30.978Z,3.37
2022-07-29T12:43:10.115Z,3.27
2022-07-29T12:48:13.742Z,2.47
2022-07-29T12:53:17.658Z,3.50
2022-07-29T12:58:35.674Z,3.87
2022-07-29T13:03:57.195Z,2.90
2022-07-29T13:09:09.453Z,2.80
2022-07-29T13:14:16.232Z,2.63
2022-07-29T13:19:19.043Z,3.73
2022-07-29T13:24:22.601Z,5.00
2022-07-29T13:29:31.351Z,3.40
2022-07-29T13:34:34.744Z,3.30
2022-07-29T13:39:38.273Z,3.57
2022-07-29T13:44:42.811Z,3.60
2022-07-29T13:49:45.433Z,3.50
2022-07-29T13:54:48.530Z,3.10
2022-07-29T13:59:54.477Z,4.30
2022-07-29T14:04:57.411Z,4.20
2022-07-29T14:10:00.133Z,3.47
2022-07-29T14:15:05.277Z,2.90
2022-07-29T14:20:08.819Z,3.00
2022-07-29T14:25:15.082Z,2.40
2022-07-29T14:30:19.931Z,2.67
2022-07-29T14:35:22.504Z,2.70
2022-07-29T14:40:26.541Z,2.63
2022-07-29T14:45:30.818Z,2.17
2022-07-29T14:50:33.878Z,2.80
2022-07-29T14:55:36.604Z,2.83
2022-07-29T15:00:40.926Z,2.33
2022-07-29T15:05:43.686Z,2.67
2022-07-29T15:10:46.377Z,2.67
2022-07-29T15:15:50.777Z,2.63
2022-07-29T15:20:53.350Z,2.80
2022-07-29T15:25:56.963Z,2.37
2022-07-29T15:31:01.078Z,2.83
2022-07-29T15:36:10.193Z,2.43
2022-07-29T15:41:15.661Z,3.20
2022-07-29T15:46:38.812Z,3.47
2022-07-29T15:51:41.672Z,2.87
2022-07-29T15:56:44.596Z,2.77
2022-07-29T16:01:48.745Z,3.40
2022-07-29T16:06:52.077Z,2.40
2022-07-29T16:11:56.177Z,2.73
2022-07-29T16:17:03.861Z,3.00
2022-07-29T16:22:06.821Z,2.30
2022-07-29T16:27:09.864Z,2.20
2022-07-29T16:32:13.807Z,2.63
2022-07-29T16:37:16.811Z,2.53
2022-07-29T16:42:36.950Z,3.13
2022-07-29T16:47:44.156Z,2.43
2022-07-29T16:52:46.895Z,2.70
2022-07-29T16:57:49.697Z,2.50
2022-07-29T17:02:56.472Z,2.90
2022-07-29T17:07:59.087Z,2.77
2022-07-29T17:13:02.164Z,2.40
2022-07-29T17:18:12.357Z,2.37
2022-07-29T17:23:15.562Z,2.50
2022-07-29T17:28:18.201Z,2.70
2022-07-29T17:33:22.687Z,2.70
2022-07-29T17:38:25.458Z,2.60
2022-07-29T17:43:28.077Z,2.80
2022-07-29T17:48:32.059Z,3.50
2022-07-29T17:53:34.816Z,3.10
2022-07-29T17:58:38.847Z,7.63
2022-07-29T18:03:44.199Z,3.93
2022-07-29T18:08:47.459Z,2.90
2022-07-29T18:13:50.236Z,2.60
2022-07-29T18:18:55.689Z,2.87
2022-07-29T18:23:58.315Z,3.27
2022-07-29T18:29:00.914Z,3.23
2022-07-29T18:34:06.139Z,3.10
2022-07-29T18:39:08.849Z,2.80
2022-07-29T18:44:16.847Z,2.53
2022-07-29T18:49:21.433Z,2.63
2022-07-29T18:54:24.173Z,3.10
2022-07-29T18:59:28.239Z,3.10
2022-07-29T19:04:32.330Z,2.67
2022-07-29T19:09:35.449Z,2.80
2022-07-29T19:14:51.803Z,2.93
2022-07-29T19:19:55.819Z,3.17
2022-07-29T19:24:58.453Z,2.20
2022-07-29T19:30:03.298Z,2.27
2022-07-29T19:35:28.047Z,2.70
2022-07-29T19:40:30.906Z,2.53
2022-07-29T19:45:34.265Z,2.67
2022-07-29T19:50:38.639Z,2.20
2022-07-29T19:55:42.307Z,2.60
2022-07-29T20:00:44.951Z,3.00
2022-07-29T20:05:51.137Z,4.00
2022-07-29T20:10:54.771Z,3.27
2022-07-29T20:15:57.616Z,3.17
2022-07-29T20:21:01.707Z,3.33
2022-07-29T20:26:09.762Z,4.10
2022-07-29T20:31:15.383Z,5.07
2022-07-29T20:36:19.360Z,2.60
2022-07-29T20:41:22.144Z,3.63
2022-07-29T20:46:24.775Z,3.40
2022-07-29T20:51:28.755Z,4.00
2022-07-29T20:56:31.319Z,9.20
2022-07-29T21:01:34.125Z,7.00
2022-07-29T21:06:38.208Z,7.70
2022-07-29T21:11:43.611Z,6.63
2022-07-29T21:16:47.652Z,7.50
2022-07-29T21:21:51.895Z,7.17
2022-07-29T21:27:21.365Z,8.10
2022-07-29T21:32:27.681Z,6.50
2022-07-29T21:37:34.556Z,6.40
2022-07-29T21:42:37.192Z,5.30
2022-07-29T21:47:40.204Z,4.50
2022-07-29T21:52:44.244Z,4.40
2022-07-29T21:57:46.989Z,4.47
2022-07-29T22:02:49.610Z,5.00
2022-07-29T22:07:56.838Z,4.10
2022-07-29T22:13:02.408Z,5.00
2022-07-29T22:18:05.206Z,4.70
2022-07-29T22:23:09.256Z,5.30
2022-07-29T22:28:11.843Z,4.70
2022-07-29T22:33:17.439Z,4.73
2022-07-29T22:38:22.191Z,4.70
2022-07-29T22:43:25.141Z,5.30
2022-07-29T22:48:28.063Z,4.77
2022-07-29T22:53:32.131Z,4.50
2022-07-29T22:58:34.943Z,5.73
2022-07-29T23:03:37.962Z,5.10
2022-07-29T23:08:41.971Z,8.50
2022-07-29T23:13:44.642Z,4.67
2022-07-29T23:18:47.270Z,4.27
2022-07-29T23:23:51.388Z,5.10
2022-07-29T23:28:53.968Z,4.47
2022-07-29T23:33:56.552Z,4.40
2022-07-29T23:39:00.455Z,4.87
2022-07-29T23:44:03.138Z,4.97
2022-07-29T23:49:07.140Z,4.43
2022-07-29T23:54:11.188Z,4.50
2022-07-29T23:59:14.271Z,4.33
